sensor_id;sensor_type;location;lat;lon;timestamp;temperature;humidity
14331;DHT22;7249;49.376;11.080;2024-03-23T00:55:34;8.10;99.90
14331;DHT22;7249;49.376;11.080;2024-03-23T00:58:00;8.00;99.90
14331;DHT22;7249;49.376;11.080;2024-03-23T01:00:26;8.00;99.90
14331;DHT22;7249;49.376;11.080;2024-03-23T01:02:51;8.00;99.90
14331;DHT22;7249;49.376;11.080;2024-03-23T01:05:17;7.90;99.90
14331;DHT22;7249;49.376;11.080;2024-03-23T01:07:43;7.90;99.90
14331;DHT22;7249;49.376;11.080;2024-03-23T01:10:08;7.80;99.90
14331;DHT22;7249;49.376;11.080;2024-03-23T01:12:34;7.80;99.90
14331;DHT22;7249;49.376;11.080;2024-03-23T01:15:00;7.70;99.90
14331;DHT22;7249;49.376;11.080;2024-03-23T01:17:25;7.70;99.90
14331;DHT22;7249;49.376;11.080;2024-03-23T01:19:51;7.60;99.90
14331;DHT22;7249;49.376;11.080;2024-03-23T01:22:17;7.50;99.90
14331;DHT22;7249;49.376;11.080;2024-03-23T01:24:42;7.50;99.90
14331;DHT22;7249;49.376;11.080;2024-03-23T01:27:08;7.40;99.90
14331;DHT22;7249;49.376;11.080;2024-03-23T01:29:34;7.40;99.90
14331;DHT22;7249;49.376;11.080;2024-03-23T01:32:00;7.40;99.90
14331;DHT22;7249;49.376;11.080;2024-03-23T01:34:25;7.40;99.90
14331;DHT22;7249;49.376;11.080;2024-03-23T01:36:51;7.40;99.90
14331;DHT22;7249;49.376;11.080;2024-03-23T01:39:17;7.40;99.90
14331;DHT22;7249;49.376;11.080;2024-03-23T01:41:42;7.40;99.90
14331;DHT22;7249;49.376;11.080;2024-03-23T01:44:09;7.50;99.90
14331;DHT22;7249;49.376;11.080;2024-03-23T01:46:36;7.60;99.90
14331;DHT22;7249;49.376;11.080;2024-03-23T01:49:02;7.80;99.90
14331;DHT22;7249;49.376;11.080;2024-03-23T01:51:29;7.80;99.90
14331;DHT22;7249;49.376;11.080;2024-03-23T01:53:56;7.90;99.90
14331;DHT22;7249;49.376;11.080;2024-03-23T01:56:22;8.00;99.90
14331;DHT22;7249;49.376;11.080;2024-03-23T01:58:48;8.00;99.90
14331;DHT22;7249;49.376;11.080;2024-03-23T02:01:14;8.10;99.90
14331;DHT22;7249;49.376;11.080;2024-03-23T02:03:39;8.10;99.90
14331;DHT22;7249;49.376;11.080;2024-03-23T02:06:05;8.20;99.90
14331;DHT22;7249;49.376;11.080;2024-03-23T02:08:33;8.20;99.90
14331;DHT22;7249;49.376;11.080;2024-03-23T02:10:58;8.30;99.90
14331;DHT22;7249;49.376;11.080;2024-03-23T02:13:24;8.40;99.90
14331;DHT22;7249;49.376;11.080;2024-03-23T02:15:50;8.40;99.90
14331;DHT22;7249;49.376;11.080;2024-03-23T02:18:15;8.40;99.90
14331;DHT22;7249;49.376;11.080;2024-03-23T02:20:41;8.50;99.90
14331;DHT22;7249;49.376;11.080;2024-03-23T02:23:16;8.50;99.90
14331;DHT22;7249;49.376;11.080;2024-03-23T02:25:44;8.60;99.90
14331;DHT22;7249;49.376;11.080;2024-03-23T02:28:10;8.60;99.90
14331;DHT22;7249;49.376;11.080;2024-03-23T02:30:36;8.60;99.90
14331;DHT22;7249;49.376;11.080;2024-03-23T02:33:02;8.70;99.90
14331;DHT22;7249;49.376;11.080;2024-03-23T02:35:27;8.70;99.90
14331;DHT22;7249;49.376;11.080;2024-03-23T02:37:53;8.70;99.90
14331;DHT22;7249;49.376;11.080;2024-03-23T02:40:20;8.80;99.90
14331;DHT22;7249;49.376;11.080;2024-03-23T02:42:46;8.80;99.90
14331;DHT22;7249;49.376;11.080;2024-03-23T02:45:12;8.80;99.90
14331;DHT22;7249;49.376;11.080;2024-03-23T02:47:37;8.90;99.90
14331;DHT22;7249;49.376;11.080;2024-03-23T02:50:03;8.90;99.90
14331;DHT22;7249;49.376;11.080;2024-03-23T02:52:30;9.00;99.90
14331;DHT22;7249;49.376;11.080;2024-03-23T02:54:56;9.00;99.90
14331;DHT22;7249;49.376;11.080;2024-03-23T02:57:22;9.00;99.90
14331;DHT22;7249;49.376;11.080;2024-03-23T02:59:47;9.10;99.90
14331;DHT22;7249;49.376;11.080;2024-03-23T03:02:15;9.10;99.90
14331;DHT22;7249;49.376;11.080;2024-03-23T03:04:41;9.10;99.90
14331;DHT22;7249;49.376;11.080;2024-03-23T03:07:06;9.20;99.90
14331;DHT22;7249;49.376;11.080;2024-03-23T03:09:32;9.20;99.90
14331;DHT22;7249;49.376;11.080;2024-03-23T03:11:58;9.20;99.90
14331;DHT22;7249;49.376;11.080;2024-03-23T03:14:24;9.20;99.90
14331;DHT22;7249;49.376;11.080;2024-03-23T03:16:49;9.20;99.90
14331;DHT22;7249;49.376;11.080;2024-03-23T03:19:15;9.30;99.90
14331;DHT22;7249;49.376;11.080;2024-03-23T03:21:42;9.30;99.90
14331;DHT22;7249;49.376;11.080;2024-03-23T03:24:07;9.30;99.90
14331;DHT22;7249;49.376;11.080;2024-03-23T03:26:33;9.40;99.90
14331;DHT22;7249;49.376;11.080;2024-03-23T03:28:59;9.40;99.90
14331;DHT22;7249;49.376;11.080;2024-03-23T03:31:24;9.40;99.90
14331;DHT22;7249;49.376;11.080;2024-03-23T03:33:50;9.50;99.90
14331;DHT22;7249;49.376;11.080;2024-03-23T03:36:16;9.50;99.90
14331;DHT22;7249;49.376;11.080;2024-03-23T03:38:42;9.50;99.90
14331;DHT22;7249;49.376;11.080;2024-03-23T03:41:08;9.40;99.90
14331;DHT22;7249;49.376;11.080;2024-03-23T03:43:33;9.40;99.90
14331;DHT22;7249;49.376;11.080;2024-03-23T03:46:00;9.40;99.90
14331;DHT22;7249;49.376;11.080;2024-03-23T03:48:26;9.40;99.90
14331;DHT22;7249;49.376;11.080;2024-03-23T03:50:52;9.40;99.90
14331;DHT22;7249;49.376;11.080;2024-03-23T03:53:19;9.40;99.90
14331;DHT22;7249;49.376;11.080;2024-03-23T03:55:44;9.50;99.90
14331;DHT22;7249;49.376;11.080;2024-03-23T03:58:10;9.50;99.90
14331;DHT22;7249;49.376;11.080;2024-03-23T04:00:36;9.50;99.90
14331;DHT22;7249;49.376;11.080;2024-03-23T04:03:02;9.50;99.90
14331;DHT22;7249;49.376;11.080;2024-03-23T04:05:28;9.60;99.90
14331;DHT22;7249;49.376;11.080;2024-03-23T04:07:53;9.60;99.90
14331;DHT22;7249;49.376;11.080;2024-03-23T04:10:20;9.60;99.90
14331;DHT22;7249;49.376;11.080;2024-03-23T04:12:46;9.70;99.90
14331;DHT22;7249;49.376;11.080;2024-03-23T04:15:12;9.70;99.90
14331;DHT22;7249;49.376;11.080;2024-03-23T04:17:38;9.70;99.90
14331;DHT22;7249;49.376;11.080;2024-03-23T04:20:04;9.70;99.90
14331;DHT22;7249;49.376;11.080;2024-03-23T04:22:34;9.60;99.90
14331;DHT22;7249;49.376;11.080;2024-03-23T04:25:00;9.50;99.90
14331;DHT22;7249;49.376;11.080;2024-03-23T04:27:32;9.40;99.90
14331;DHT22;7249;49.376;11.080;2024-03-23T04:29:58;9.40;99.90
14331;DHT22;7249;49.376;11.080;2024-03-23T04:32:26;9.30;99.90
14331;DHT22;7249;49.376;11.080;2024-03-23T04:34:52;9.20;99.90
14331;DHT22;7249;49.376;11.080;2024-03-23T04:37:17;9.20;99.90
14331;DHT22;7249;49.376;11.080;2024-03-23T04:39:43;9.10;99.90
14331;DHT22;7249;49.376;11.080;2024-03-23T04:42:09;9.10;99.90
14331;DHT22;7249;49.376;11.080;2024-03-23T04:44:34;9.10;99.90
14331;DHT22;7249;49.376;11.080;2024-03-23T04:47:00;9.10;99.90
14331;DHT22;7249;49.376;11.080;2024-03-23T04:49:26;9.10;99.90
14331;DHT22;7249;49.376;11.080;2024-03-23T04:51:52;9.00;99.90
14331;DHT22;7249;49.376;11.080;2024-03-23T04:54:18;9.00;99.90
14331;DHT22;7249;49.376;11.080;2024-03-23T04:56:43;9.00;99.90
14331;DHT22;7249;49.376;11.080;2024-03-23T04:59:09;9.00;99.90
14331;DHT22;7249;49.376;11.080;2024-03-23T05:01:34;8.90;99.90
14331;DHT22;7249;49.376;11.080;2024-03-23T05:04:01;8.90;99.90
14331;DHT22;7249;49.376;11.080;2024-03-23T05:06:27;8.90;99.90
14331;DHT22;7249;49.376;11.080;2024-03-23T05:08:52;8.80;99.90
14331;DHT22;7249;49.376;11.080;2024-03-23T05:11:18;8.80;99.90
14331;DHT22;7249;49.376;11.080;2024-03-23T05:13:45;8.80;99.90
14331;DHT22;7249;49.376;11.080;2024-03-23T05:16:10;8.80;99.90
14331;DHT22;7249;49.376;11.080;2024-03-23T05:18:36;8.70;99.90
14331;DHT22;7249;49.376;11.080;2024-03-23T05:21:02;8.70;99.90
14331;DHT22;7249;49.376;11.080;2024-03-23T05:23:30;8.60;99.90
14331;DHT22;7249;49.376;11.080;2024-03-23T05:25:56;8.60;99.90
14331;DHT22;7249;49.376;11.080;2024-03-23T05:28:22;8.50;99.90
14331;DHT22;7249;49.376;11.080;2024-03-23T05:30:53;8.50;99.90
14331;DHT22;7249;49.376;11.080;2024-03-23T05:33:19;8.50;99.90
14331;DHT22;7249;49.376;11.080;2024-03-23T05:35:45;8.50;99.90
14331;DHT22;7249;49.376;11.080;2024-03-23T05:38:10;8.50;99.90
14331;DHT22;7249;49.376;11.080;2024-03-23T05:40:36;8.60;99.90
14331;DHT22;7249;49.376;11.080;2024-03-23T05:43:03;8.60;99.90
14331;DHT22;7249;49.376;11.080;2024-03-23T05:45:29;8.70;99.90
14331;DHT22;7249;49.376;11.080;2024-03-23T05:47:55;8.90;99.90
14331;DHT22;7249;49.376;11.080;2024-03-23T05:50:22;9.00;99.90
14331;DHT22;7249;49.376;11.080;2024-03-23T05:52:49;9.20;99.90
14331;DHT22;7249;49.376;11.080;2024-03-23T05:55:15;9.40;99.90
14331;DHT22;7249;49.376;11.080;2024-03-23T05:57:41;9.50;99.90
14331;DHT22;7249;49.376;11.080;2024-03-23T06:00:07;9.60;99.90
14331;DHT22;7249;49.376;11.080;2024-03-23T06:02:41;9.70;99.90
14331;DHT22;7249;49.376;11.080;2024-03-23T06:05:12;9.80;99.90
14331;DHT22;7249;49.376;11.080;2024-03-23T06:07:38;9.90;99.90
14331;DHT22;7249;49.376;11.080;2024-03-23T06:10:05;9.90;99.90
14331;DHT22;7249;49.376;11.080;2024-03-23T06:12:31;10.00;99.90
14331;DHT22;7249;49.376;11.080;2024-03-23T06:14:57;10.10;99.90
14331;DHT22;7249;49.376;11.080;2024-03-23T06:17:22;10.10;99.90
14331;DHT22;7249;49.376;11.080;2024-03-23T06:19:48;10.30;99.90
14331;DHT22;7249;49.376;11.080;2024-03-23T06:22:14;10.40;99.90
14331;DHT22;7249;49.376;11.080;2024-03-23T06:24:40;10.60;99.90
14331;DHT22;7249;49.376;11.080;2024-03-23T06:27:06;10.70;99.90
14331;DHT22;7249;49.376;11.080;2024-03-23T06:29:31;10.70;99.90
14331;DHT22;7249;49.376;11.080;2024-03-23T06:31:57;10.60;99.90
14331;DHT22;7249;49.376;11.080;2024-03-23T06:34:23;10.60;99.90
14331;DHT22;7249;49.376;11.080;2024-03-23T06:36:49;10.50;99.90
14331;DHT22;7249;49.376;11.080;2024-03-23T06:39:15;10.40;99.90
14331;DHT22;7249;49.376;11.080;2024-03-23T06:41:52;10.40;99.90
14331;DHT22;7249;49.376;11.080;2024-03-23T06:44:18;10.30;99.90
14331;DHT22;7249;49.376;11.080;2024-03-23T06:46:44;10.30;99.90
14331;DHT22;7249;49.376;11.080;2024-03-23T06:49:10;10.40;99.90
14331;DHT22;7249;49.376;11.080;2024-03-23T06:51:36;10.40;99.90
14331;DHT22;7249;49.376;11.080;2024-03-23T06:54:03;10.40;99.90
14331;DHT22;7249;49.376;11.080;2024-03-23T06:56:29;10.50;99.90
14331;DHT22;7249;49.376;11.080;2024-03-23T06:58:56;10.50;99.90
14331;DHT22;7249;49.376;11.080;2024-03-23T07:01:22;10.60;99.90
14331;DHT22;7249;49.376;11.080;2024-03-23T07:03:47;10.60;99.90
14331;DHT22;7249;49.376;11.080;2024-03-23T07:06:13;10.60;99.90
14331;DHT22;7249;49.376;11.080;2024-03-23T07:08:39;10.60;99.90
14331;DHT22;7249;49.376;11.080;2024-03-23T07:11:05;10.60;99.90
14331;DHT22;7249;49.376;11.080;2024-03-23T07:13:31;10.50;99.90
14331;DHT22;7249;49.376;11.080;2024-03-23T07:15:57;10.50;99.90
14331;DHT22;7249;49.376;11.080;2024-03-23T07:18:24;10.50;99.90
14331;DHT22;7249;49.376;11.080;2024-03-23T07:20:56;10.50;99.90
14331;DHT22;7249;49.376;11.080;2024-03-23T07:23:22;10.40;99.90
14331;DHT22;7249;49.376;11.080;2024-03-23T07:25:58;10.40;99.90
14331;DHT22;7249;49.376;11.080;2024-03-23T07:28:24;10.40;99.90
14331;DHT22;7249;49.376;11.080;2024-03-23T07:31:05;10.40;99.90
14331;DHT22;7249;49.376;11.080;2024-03-23T07:33:32;10.30;99.90
14331;DHT22;7249;49.376;11.080;2024-03-23T07:35:58;10.20;99.90
14331;DHT22;7249;49.376;11.080;2024-03-23T07:38:28;10.20;99.90
14331;DHT22;7249;49.376;11.080;2024-03-23T07:41:10;10.10;99.90
14331;DHT22;7249;49.376;11.080;2024-03-23T07:43:40;10.10;99.90
14331;DHT22;7249;49.376;11.080;2024-03-23T07:46:08;10.10;99.90
14331;DHT22;7249;49.376;11.080;2024-03-23T07:48:34;10.10;99.90
14331;DHT22;7249;49.376;11.080;2024-03-23T07:51:07;10.20;99.90
14331;DHT22;7249;49.376;11.080;2024-03-23T07:53:35;10.20;99.90
14331;DHT22;7249;49.376;11.080;2024-03-23T07:56:04;10.30;99.90
14331;DHT22;7249;49.376;11.080;2024-03-23T07:58:30;10.40;99.90
14331;DHT22;7249;49.376;11.080;2024-03-23T08:01:01;10.40;99.90
14331;DHT22;7249;49.376;11.080;2024-03-23T08:03:28;10.50;99.90
14331;DHT22;7249;49.376;11.080;2024-03-23T08:05:54;10.60;99.90
14331;DHT22;7249;49.376;11.080;2024-03-23T08:08:19;10.70;99.90
14331;DHT22;7249;49.376;11.080;2024-03-23T08:10:49;10.90;99.90
14331;DHT22;7249;49.376;11.080;2024-03-23T08:13:15;11.20;99.90
14331;DHT22;7249;49.376;11.080;2024-03-23T08:15:41;11.30;99.90
14331;DHT22;7249;49.376;11.080;2024-03-23T08:18:07;11.40;99.90
14331;DHT22;7249;49.376;11.080;2024-03-23T08:20:33;11.50;99.90
14331;DHT22;7249;49.376;11.080;2024-03-23T08:22:58;11.60;99.90
14331;DHT22;7249;49.376;11.080;2024-03-23T08:25:24;11.60;99.90
14331;DHT22;7249;49.376;11.080;2024-03-23T08:27:49;11.50;99.90
14331;DHT22;7249;49.376;11.080;2024-03-23T08:30:15;11.20;99.90
14331;DHT22;7249;49.376;11.080;2024-03-23T08:32:41;10.70;99.90
14331;DHT22;7249;49.376;11.080;2024-03-23T08:35:08;10.20;99.90
14331;DHT22;7249;49.376;11.080;2024-03-23T08:37:33;9.80;99.90
14331;DHT22;7249;49.376;11.080;2024-03-23T08:39:59;9.50;99.90
14331;DHT22;7249;49.376;11.080;2024-03-23T08:42:25;9.40;99.90
14331;DHT22;7249;49.376;11.080;2024-03-23T08:44:50;9.30;99.90
14331;DHT22;7249;49.376;11.080;2024-03-23T08:47:16;9.20;99.90
14331;DHT22;7249;49.376;11.080;2024-03-23T08:49:42;9.20;99.90
14331;DHT22;7249;49.376;11.080;2024-03-23T08:52:08;9.60;99.90
14331;DHT22;7249;49.376;11.080;2024-03-23T08:54:34;9.90;99.90
14331;DHT22;7249;49.376;11.080;2024-03-23T08:57:00;10.30;99.90
14331;DHT22;7249;49.376;11.080;2024-03-23T08:59:25;10.50;99.90
14331;DHT22;7249;49.376;11.080;2024-03-23T09:01:52;10.60;99.90
14331;DHT22;7249;49.376;11.080;2024-03-23T09:04:17;10.90;99.90
14331;DHT22;7249;49.376;11.080;2024-03-23T09:06:43;11.20;99.90
14331;DHT22;7249;49.376;11.080;2024-03-23T09:09:09;11.30;99.90
14331;DHT22;7249;49.376;11.080;2024-03-23T09:11:34;11.00;99.90
14331;DHT22;7249;49.376;11.080;2024-03-23T09:14:00;10.80;99.90
14331;DHT22;7249;49.376;11.080;2024-03-23T09:16:26;10.50;99.90
14331;DHT22;7249;49.376;11.080;2024-03-23T09:18:52;10.50;99.90
14331;DHT22;7249;49.376;11.080;2024-03-23T09:21:18;10.70;99.90
14331;DHT22;7249;49.376;11.080;2024-03-23T09:23:44;10.90;99.90
14331;DHT22;7249;49.376;11.080;2024-03-23T09:26:10;11.00;99.90
14331;DHT22;7249;49.376;11.080;2024-03-23T09:28:36;10.90;99.90
14331;DHT22;7249;49.376;11.080;2024-03-23T09:31:06;10.80;99.90
14331;DHT22;7249;49.376;11.080;2024-03-23T09:33:40;10.60;99.90
14331;DHT22;7249;49.376;11.080;2024-03-23T09:36:07;10.50;99.90
14331;DHT22;7249;49.376;11.080;2024-03-23T09:38:33;10.50;99.90
14331;DHT22;7249;49.376;11.080;2024-03-23T09:40:59;10.50;99.90
14331;DHT22;7249;49.376;11.080;2024-03-23T09:43:25;10.60;99.90
14331;DHT22;7249;49.376;11.080;2024-03-23T09:45:53;11.10;99.90
14331;DHT22;7249;49.376;11.080;2024-03-23T09:48:19;12.00;99.90
14331;DHT22;7249;49.376;11.080;2024-03-23T09:50:45;12.70;99.90
14331;DHT22;7249;49.376;11.080;2024-03-23T09:53:12;13.40;99.90
14331;DHT22;7249;49.376;11.080;2024-03-23T09:55:39;13.70;99.90
14331;DHT22;7249;49.376;11.080;2024-03-23T09:58:05;13.50;99.90
14331;DHT22;7249;49.376;11.080;2024-03-23T10:00:35;13.10;99.90
14331;DHT22;7249;49.376;11.080;2024-03-23T10:03:01;12.50;99.90
14331;DHT22;7249;49.376;11.080;2024-03-23T10:05:30;12.10;99.90
14331;DHT22;7249;49.376;11.080;2024-03-23T10:10:40;10.70;99.90
14331;DHT22;7249;49.376;11.080;2024-03-23T10:13:06;10.30;99.90
14331;DHT22;7249;49.376;11.080;2024-03-23T10:15:34;10.00;99.90
14331;DHT22;7249;49.376;11.080;2024-03-23T10:18:17;10.00;99.90
14331;DHT22;7249;49.376;11.080;2024-03-23T10:20:45;9.90;99.90
14331;DHT22;7249;49.376;11.080;2024-03-23T10:23:17;10.00;99.90
14331;DHT22;7249;49.376;11.080;2024-03-23T10:26:16;9.90;99.90
14331;DHT22;7249;49.376;11.080;2024-03-23T10:29:02;9.90;99.90
14331;DHT22;7249;49.376;11.080;2024-03-23T10:32:10;9.70;99.90
14331;DHT22;7249;49.376;11.080;2024-03-23T10:34:56;9.70;99.90
14331;DHT22;7249;49.376;11.080;2024-03-23T10:37:42;9.50;99.90
14331;DHT22;7249;49.376;11.080;2024-03-23T10:40:29;9.30;99.90
14331;DHT22;7249;49.376;11.080;2024-03-23T10:43:15;9.00;99.90
14331;DHT22;7249;49.376;11.080;2024-03-23T10:46:02;8.70;99.90
14331;DHT22;7249;49.376;11.080;2024-03-23T10:48:49;8.40;99.90
14331;DHT22;7249;49.376;11.080;2024-03-23T10:51:35;8.40;99.90
14331;DHT22;7249;49.376;11.080;2024-03-23T10:54:21;8.40;99.90
14331;DHT22;7249;49.376;11.080;2024-03-23T10:57:18;8.70;99.90
14331;DHT22;7249;49.376;11.080;2024-03-23T11:00:06;9.70;99.90
14331;DHT22;7249;49.376;11.080;2024-03-23T11:02:52;11.10;99.90
14331;DHT22;7249;49.376;11.080;2024-03-23T11:05:38;12.50;99.90
14331;DHT22;7249;49.376;11.080;2024-03-23T11:08:38;13.20;99.90
14331;DHT22;7249;49.376;11.080;2024-03-23T11:11:24;13.90;99.90
14331;DHT22;7249;49.376;11.080;2024-03-23T11:14:22;14.90;99.90
14331;DHT22;7249;49.376;11.080;2024-03-23T11:17:10;16.40;99.90
14331;DHT22;7249;49.376;11.080;2024-03-23T11:19:57;17.60;99.90
14331;DHT22;7249;49.376;11.080;2024-03-23T11:22:44;16.90;99.90
14331;DHT22;7249;49.376;11.080;2024-03-23T11:25:33;15.80;99.90
14331;DHT22;7249;49.376;11.080;2024-03-23T11:28:19;14.40;99.90
14331;DHT22;7249;49.376;11.080;2024-03-23T11:31:09;13.00;99.90
14331;DHT22;7249;49.376;11.080;2024-03-23T11:34:05;12.00;99.90
14331;DHT22;7249;49.376;11.080;2024-03-23T11:37:03;12.80;99.90
14331;DHT22;7249;49.376;11.080;2024-03-23T11:39:50;14.60;99.90
14331;DHT22;7249;49.376;11.080;2024-03-23T11:42:36;16.40;99.90
14331;DHT22;7249;49.376;11.080;2024-03-23T11:45:22;17.50;99.90
14331;DHT22;7249;49.376;11.080;2024-03-23T11:48:08;16.40;99.90
14331;DHT22;7249;49.376;11.080;2024-03-23T11:50:56;14.90;99.90
14331;DHT22;7249;49.376;11.080;2024-03-23T11:53:45;13.50;99.90
14331;DHT22;7249;49.376;11.080;2024-03-23T11:56:31;12.40;99.90
14331;DHT22;7249;49.376;11.080;2024-03-23T11:59:31;13.10;99.90
14331;DHT22;7249;49.376;11.080;2024-03-23T12:02:18;15.20;99.90
14331;DHT22;7249;49.376;11.080;2024-03-23T12:05:16;17.00;99.90
14331;DHT22;7249;49.376;11.080;2024-03-23T12:08:21;17.90;99.90
14331;DHT22;7249;49.376;11.080;2024-03-23T12:13:59;17.00;99.90
14331;DHT22;7249;49.376;11.080;2024-03-23T12:16:45;15.40;99.90
14331;DHT22;7249;49.376;11.080;2024-03-23T12:19:31;15.00;99.90
14331;DHT22;7249;49.376;11.080;2024-03-23T12:22:20;14.80;99.90
14331;DHT22;7249;49.376;11.080;2024-03-23T12:25:07;14.00;99.90
14331;DHT22;7249;49.376;11.080;2024-03-23T12:27:52;13.40;99.90
14331;DHT22;7249;49.376;11.080;2024-03-23T12:30:39;12.90;99.90
14331;DHT22;7249;49.376;11.080;2024-03-23T12:33:25;12.70;99.90
14331;DHT22;7249;49.376;11.080;2024-03-23T12:36:11;13.10;99.90
14331;DHT22;7249;49.376;11.080;2024-03-23T12:38:57;13.40;99.90
14331;DHT22;7249;49.376;11.080;2024-03-23T12:41:43;13.20;99.90
14331;DHT22;7249;49.376;11.080;2024-03-23T12:44:29;14.60;99.90
14331;DHT22;7249;49.376;11.080;2024-03-23T12:47:15;16.40;99.90
14331;DHT22;7249;49.376;11.080;2024-03-23T12:50:01;17.00;99.90
14331;DHT22;7249;49.376;11.080;2024-03-23T12:52:47;17.50;99.90
14331;DHT22;7249;49.376;11.080;2024-03-23T12:55:35;18.20;99.90
14331;DHT22;7249;49.376;11.080;2024-03-23T12:58:21;18.00;99.90
14331;DHT22;7249;49.376;11.080;2024-03-23T13:01:07;17.50;99.90
14331;DHT22;7249;49.376;11.080;2024-03-23T13:03:53;16.10;99.90
14331;DHT22;7249;49.376;11.080;2024-03-23T13:06:39;16.30;99.90
14331;DHT22;7249;49.376;11.080;2024-03-23T13:09:25;17.10;99.90
14331;DHT22;7249;49.376;11.080;2024-03-23T13:12:11;17.80;99.90
14331;DHT22;7249;49.376;11.080;2024-03-23T13:15:00;17.90;99.90
14331;DHT22;7249;49.376;11.080;2024-03-23T13:17:46;17.60;99.90
14331;DHT22;7249;49.376;11.080;2024-03-23T13:20:35;18.30;99.90
14331;DHT22;7249;49.376;11.080;2024-03-23T13:23:21;18.80;99.90
14331;DHT22;7249;49.376;11.080;2024-03-23T13:26:07;19.10;99.90
14331;DHT22;7249;49.376;11.080;2024-03-23T13:28:53;18.90;99.90
14331;DHT22;7249;49.376;11.080;2024-03-23T13:31:39;17.60;99.90
14331;DHT22;7249;49.376;11.080;2024-03-23T13:34:25;16.40;99.90
14331;DHT22;7249;49.376;11.080;2024-03-23T13:37:11;15.50;99.90
14331;DHT22;7249;49.376;11.080;2024-03-23T13:39:57;14.70;99.90
14331;DHT22;7249;49.376;11.080;2024-03-23T13:42:42;14.20;99.90
14331;DHT22;7249;49.376;11.080;2024-03-23T13:45:28;14.40;99.90
14331;DHT22;7249;49.376;11.080;2024-03-23T13:48:16;14.40;99.90
14331;DHT22;7249;49.376;11.080;2024-03-23T13:51:05;14.70;99.90
14331;DHT22;7249;49.376;11.080;2024-03-23T13:53:51;14.60;99.90
14331;DHT22;7249;49.376;11.080;2024-03-23T13:56:37;14.30;99.90
14331;DHT22;7249;49.376;11.080;2024-03-23T13:59:23;14.00;99.90
14331;DHT22;7249;49.376;11.080;2024-03-23T14:02:09;13.60;99.90
14331;DHT22;7249;49.376;11.080;2024-03-23T14:04:57;13.70;99.90
14331;DHT22;7249;49.376;11.080;2024-03-23T14:07:43;13.80;99.90
14331;DHT22;7249;49.376;11.080;2024-03-23T14:10:29;14.20;99.90
14331;DHT22;7249;49.376;11.080;2024-03-23T14:13:15;15.40;99.90
14331;DHT22;7249;49.376;11.080;2024-03-23T14:16:01;16.40;99.90
14331;DHT22;7249;49.376;11.080;2024-03-23T14:18:47;17.20;99.90
14331;DHT22;7249;49.376;11.080;2024-03-23T14:21:33;17.90;99.90
14331;DHT22;7249;49.376;11.080;2024-03-23T14:24:22;18.20;99.90
14331;DHT22;7249;49.376;11.080;2024-03-23T14:27:10;18.50;99.90
14331;DHT22;7249;49.376;11.080;2024-03-23T14:29:55;18.50;99.40
14331;DHT22;7249;49.376;11.080;2024-03-23T14:32:42;18.10;99.30
14331;DHT22;7249;49.376;11.080;2024-03-23T14:35:28;17.70;99.90
14331;DHT22;7249;49.376;11.080;2024-03-23T14:38:13;17.50;99.90
14331;DHT22;7249;49.376;11.080;2024-03-23T14:41:00;16.70;99.90
14331;DHT22;7249;49.376;11.080;2024-03-23T14:43:48;15.70;99.90
14331;DHT22;7249;49.376;11.080;2024-03-23T14:46:35;14.70;99.90
14331;DHT22;7249;49.376;11.080;2024-03-23T14:49:21;13.90;99.90
14331;DHT22;7249;49.376;11.080;2024-03-23T14:52:07;13.60;99.90
14331;DHT22;7249;49.376;11.080;2024-03-23T14:54:54;13.90;99.90
14331;DHT22;7249;49.376;11.080;2024-03-23T14:57:42;13.80;99.90
14331;DHT22;7249;49.376;11.080;2024-03-23T15:00:28;13.70;99.90
14331;DHT22;7249;49.376;11.080;2024-03-23T15:03:14;13.30;99.90
14331;DHT22;7249;49.376;11.080;2024-03-23T15:06:00;13.00;99.90
14331;DHT22;7249;49.376;11.080;2024-03-23T15:08:47;12.60;99.90
14331;DHT22;7249;49.376;11.080;2024-03-23T15:11:33;12.30;99.90
14331;DHT22;7249;49.376;11.080;2024-03-23T15:14:19;11.80;99.90
14331;DHT22;7249;49.376;11.080;2024-03-23T15:17:05;10.80;99.90
14331;DHT22;7249;49.376;11.080;2024-03-23T15:19:53;9.70;99.90
14331;DHT22;7249;49.376;11.080;2024-03-23T15:22:41;8.70;99.90
14331;DHT22;7249;49.376;11.080;2024-03-23T15:25:27;7.90;99.90
14331;DHT22;7249;49.376;11.080;2024-03-23T15:28:13;7.30;99.90
14331;DHT22;7249;49.376;11.080;2024-03-23T15:30:59;7.70;99.90
14331;DHT22;7249;49.376;11.080;2024-03-23T15:33:45;8.60;99.90
14331;DHT22;7249;49.376;11.080;2024-03-23T15:36:31;9.70;99.90
14331;DHT22;7249;49.376;11.080;2024-03-23T15:39:17;10.70;99.90
14331;DHT22;7249;49.376;11.080;2024-03-23T15:42:03;11.40;99.90
14331;DHT22;7249;49.376;11.080;2024-03-23T15:44:49;12.00;99.90
14331;DHT22;7249;49.376;11.080;2024-03-23T15:47:36;12.30;99.90
14331;DHT22;7249;49.376;11.080;2024-03-23T15:50:22;11.60;99.90
14331;DHT22;7249;49.376;11.080;2024-03-23T15:53:07;10.90;99.90
14331;DHT22;7249;49.376;11.080;2024-03-23T15:56:01;10.40;99.90
14331;DHT22;7249;49.376;11.080;2024-03-23T15:58:47;10.70;99.90
14331;DHT22;7249;49.376;11.080;2024-03-23T16:01:33;11.10;99.90
14331;DHT22;7249;49.376;11.080;2024-03-23T16:04:20;11.40;99.90
14331;DHT22;7249;49.376;11.080;2024-03-23T16:07:06;11.70;99.90
14331;DHT22;7249;49.376;11.080;2024-03-23T16:09:52;11.90;99.90
14331;DHT22;7249;49.376;11.080;2024-03-23T16:12:38;12.00;99.90
14331;DHT22;7249;49.376;11.080;2024-03-23T16:15:25;11.80;99.90
14331;DHT22;7249;49.376;11.080;2024-03-23T16:18:11;11.20;99.90
14331;DHT22;7249;49.376;11.080;2024-03-23T16:21:01;10.40;99.90
14331;DHT22;7249;49.376;11.080;2024-03-23T16:23:48;10.10;99.90
14331;DHT22;7249;49.376;11.080;2024-03-23T16:26:34;9.90;99.90
14331;DHT22;7249;49.376;11.080;2024-03-23T16:29:20;9.90;99.90
14331;DHT22;7249;49.376;11.080;2024-03-23T16:32:05;9.80;99.90
14331;DHT22;7249;49.376;11.080;2024-03-23T16:34:51;9.50;99.90
14331;DHT22;7249;49.376;11.080;2024-03-23T16:37:37;9.20;99.90
14331;DHT22;7249;49.376;11.080;2024-03-23T16:40:23;8.80;99.90
14331;DHT22;7249;49.376;11.080;2024-03-23T16:43:10;8.50;99.90
14331;DHT22;7249;49.376;11.080;2024-03-23T16:45:58;8.40;99.90
14331;DHT22;7249;49.376;11.080;2024-03-23T16:48:44;8.30;99.90
14331;DHT22;7249;49.376;11.080;2024-03-23T16:51:31;8.20;99.90
14331;DHT22;7249;49.376;11.080;2024-03-23T16:54:17;8.10;99.90
14331;DHT22;7249;49.376;11.080;2024-03-23T16:57:03;8.00;99.90
14331;DHT22;7249;49.376;11.080;2024-03-23T16:59:49;8.00;99.90
14331;DHT22;7249;49.376;11.080;2024-03-23T17:02:35;7.90;99.90
14331;DHT22;7249;49.376;11.080;2024-03-23T17:05:23;7.70;99.90
14331;DHT22;7249;49.376;11.080;2024-03-23T17:08:09;7.70;99.90
14331;DHT22;7249;49.376;11.080;2024-03-23T17:11:01;7.50;99.90
14331;DHT22;7249;49.376;11.080;2024-03-23T17:13:50;7.40;99.90
14331;DHT22;7249;49.376;11.080;2024-03-23T17:16:38;7.20;99.90
14331;DHT22;7249;49.376;11.080;2024-03-23T17:19:24;7.10;99.90
14331;DHT22;7249;49.376;11.080;2024-03-23T17:22:12;7.00;99.90
14331;DHT22;7249;49.376;11.080;2024-03-23T17:24:58;6.90;99.90